createdAt,value
2023-03-08T00:00:13.484Z,92.83
2023-03-08T00:03:15.474Z,92.91
2023-03-08T00:06:05.745Z,93.48
2023-03-08T00:09:00.616Z,93.65
2023-03-08T00:11:46.981Z,93.69
2023-03-08T00:14:33.566Z,93.81
2023-03-08T00:17:20.432Z,93.70
2023-03-08T00:20:11.106Z,93.72
2023-03-08T00:22:57.844Z,93.78
2023-03-08T00:25:45.224Z,93.85
2023-03-08T00:28:32.390Z,93.84
2023-03-08T00:31:19.787Z,94.12
2023-03-08T00:34:06.683Z,94.35
2023-03-08T00:36:54.133Z,94.67
2023-03-08T00:39:40.601Z,94.61
2023-03-08T00:42:27.552Z,94.52
2023-03-08T00:45:13.959Z,94.30
2023-03-08T00:48:00.593Z,94.11
2023-03-08T00:50:48.039Z,93.61
2023-03-08T00:53:35.430Z,92.72
2023-03-08T00:56:22.160Z,92.75
2023-03-08T00:59:08.746Z,92.68
2023-03-08T01:01:55.439Z,92.83
2023-03-08T01:04:42.091Z,93.57
2023-03-08T01:08:10.686Z,93.92
2023-03-08T01:10:59.794Z,94.01
2023-03-08T01:13:46.343Z,93.84
2023-03-08T01:16:34.068Z,94.02
2023-03-08T01:19:21.477Z,94.30
2023-03-08T01:22:08.172Z,93.91
2023-03-08T01:24:54.510Z,93.16
2023-03-08T01:27:41.114Z,93.28
2023-03-08T01:30:28.519Z,93.44
2023-03-08T01:33:15.643Z,93.70
2023-03-08T01:36:10.471Z,93.17
2023-03-08T01:39:01.663Z,93.64
2023-03-08T01:41:48.404Z,94.19
2023-03-08T01:45:00.346Z,94.66
2023-03-08T01:47:47.012Z,94.48
2023-03-08T01:50:33.787Z,94.71
2023-03-08T01:53:23.349Z,95.26
2023-03-08T01:56:13.710Z,95.44
2023-03-08T01:59:01.401Z,95.62
2023-03-08T02:01:48.855Z,95.94
2023-03-08T02:04:35.981Z,95.70
2023-03-08T02:07:22.621Z,95.62
2023-03-08T02:14:20.363Z,95.55
2023-03-08T02:17:07.281Z,95.69
2023-03-08T02:20:12.582Z,95.58
2023-03-08T02:23:11.648Z,95.41
2023-03-08T02:26:10.501Z,94.93
2023-03-08T02:28:57.282Z,94.81
2023-03-08T02:31:43.554Z,94.70
2023-03-08T02:34:31.052Z,94.55
2023-03-08T02:37:17.829Z,94.50
2023-03-08T02:40:05.210Z,94.07
2023-03-08T02:42:53.459Z,93.53
2023-03-08T02:45:40.547Z,93.21
2023-03-08T02:48:26.864Z,92.77
2023-03-08T02:51:14.215Z,92.92
2023-03-08T02:54:00.915Z,92.68
2023-03-08T02:56:47.595Z,92.58
2023-03-08T02:59:33.873Z,92.18
2023-03-08T03:02:20.701Z,92.10
2023-03-08T03:05:11.085Z,92.16
2023-03-08T03:07:58.712Z,91.89
2023-03-08T03:10:45.634Z,92.20
2023-03-08T03:13:32.317Z,92.66
2023-03-08T03:16:19.259Z,92.44
2023-03-08T03:19:05.749Z,92.16
2023-03-08T03:21:52.445Z,91.33
2023-03-08T03:24:38.915Z,90.96
2023-03-08T03:27:25.562Z,91.11
2023-03-08T03:30:12.864Z,91.11
2023-03-08T03:32:59.471Z,90.89
2023-03-08T03:35:46.017Z,90.99
2023-03-08T03:38:32.380Z,90.98
2023-03-08T03:41:21.759Z,91.32
2023-03-08T03:44:08.400Z,91.39
2023-03-08T03:46:56.525Z,91.09
2023-03-08T03:49:43.011Z,90.79
2023-03-08T03:52:29.702Z,90.95
2023-03-08T03:55:16.676Z,90.99
2023-03-08T03:58:03.483Z,90.85
2023-03-08T04:00:50.010Z,91.04
2023-03-08T04:03:37.530Z,91.21
2023-03-08T04:06:35.184Z,91.80
2023-03-08T04:09:21.647Z,92.03
2023-03-08T04:12:08.496Z,92.29
2023-03-08T04:14:57.921Z,92.44
2023-03-08T04:17:45.241Z,92.60
2023-03-08T04:20:32.148Z,92.68
2023-03-08T04:23:20.043Z,92.93
2023-03-08T04:26:07.426Z,92.84
2023-03-08T04:28:53.898Z,93.12
2023-03-08T04:31:40.257Z,93.02
2023-03-08T04:34:27.860Z,93.03
2023-03-08T04:37:14.624Z,93.01
2023-03-08T04:40:02.678Z,93.10
2023-03-08T04:42:49.477Z,93.27
2023-03-08T04:45:36.839Z,93.37
2023-03-08T04:48:26.335Z,93.30
2023-03-08T04:51:15.147Z,93.28
2023-03-08T04:54:01.898Z,93.52
2023-03-08T04:56:49.419Z,93.26
2023-03-08T04:59:36.161Z,93.42
2023-03-08T05:02:24.217Z,92.99
2023-03-08T05:05:10.728Z,92.79
2023-03-08T05:07:57.379Z,92.12
2023-03-08T05:11:00.286Z,91.96
2023-03-08T05:13:49.288Z,91.61
2023-03-08T05:16:35.721Z,91.52
2023-03-08T05:19:23.420Z,91.44
2023-03-08T05:22:09.868Z,90.87
2023-03-08T05:24:56.641Z,90.53
2023-03-08T05:27:43.280Z,90.71
2023-03-08T05:30:29.852Z,90.74
2023-03-08T05:33:17.732Z,90.15
2023-03-08T05:36:05.941Z,90.10
2023-03-08T05:38:55.957Z,90.02
2023-03-08T05:41:45.044Z,89.36
2023-03-08T05:44:31.378Z,88.88
2023-03-08T05:47:17.967Z,89.27
2023-03-08T05:50:04.856Z,89.10
2023-03-08T05:52:51.589Z,88.83
2023-03-08T05:55:38.299Z,88.54
2023-03-08T05:58:25.041Z,88.13
2023-03-08T06:01:16.829Z,88.21
2023-03-08T06:04:03.444Z,88.01
2023-03-08T06:06:49.900Z,87.86
2023-03-08T06:09:36.345Z,87.03
2023-03-08T06:12:23.830Z,86.99
2023-03-08T06:15:12.362Z,87.00
2023-03-08T06:17:59.298Z,86.72
2023-03-08T06:20:45.862Z,86.75
2023-03-08T06:23:34.625Z,86.82
2023-03-08T06:26:21.366Z,85.50
2023-03-08T06:29:08.150Z,84.18
2023-03-08T06:31:56.115Z,83.79
2023-03-08T06:34:43.272Z,83.53
2023-03-08T06:37:35.055Z,82.03
2023-03-08T06:40:38.716Z,81.78
2023-03-08T06:43:27.169Z,80.29
2023-03-08T06:46:17.352Z,80.48
2023-03-08T06:49:04.361Z,79.62
2023-03-08T06:52:35.302Z,77.67
2023-03-08T06:55:24.362Z,77.90
2023-03-08T06:58:28.750Z,77.76
2023-03-08T07:01:18.539Z,75.23
2023-03-08T07:04:05.498Z,74.12
2023-03-08T07:06:52.151Z,72.94
2023-03-08T07:09:38.816Z,73.02
2023-03-08T07:12:25.595Z,73.54
2023-03-08T07:15:19.004Z,72.99
2023-03-08T07:18:14.090Z,72.61
2023-03-08T07:21:02.681Z,71.67
2023-03-08T07:23:51.980Z,71.73
2023-03-08T07:26:38.392Z,69.69
2023-03-08T07:29:25.652Z,70.38
2023-03-08T07:32:15.336Z,68.81
2023-03-08T07:35:05.443Z,68.59
2023-03-08T07:37:51.928Z,68.11
2023-03-08T07:40:39.346Z,67.66
2023-03-08T07:43:27.370Z,67.13
2023-03-08T07:46:15.479Z,66.13
2023-03-08T07:49:02.388Z,67.28
2023-03-08T07:51:49.926Z,67.64
2023-03-08T07:54:37.012Z,67.71
2023-03-08T07:57:24.484Z,69.30
2023-03-08T08:00:11.404Z,68.52
2023-03-08T08:02:58.254Z,68.69
2023-03-08T08:05:45.464Z,69.27
2023-03-08T08:08:32.584Z,68.06
2023-03-08T08:11:22.631Z,67.94
2023-03-08T08:14:10.096Z,68.37
2023-03-08T08:16:57.415Z,69.49
2023-03-08T08:19:44.033Z,67.30
2023-03-08T08:22:30.617Z,69.47
2023-03-08T08:25:17.226Z,70.22
2023-03-08T08:28:03.914Z,68.56
2023-03-08T08:31:00.155Z,69.21
2023-03-08T08:33:46.919Z,66.50
2023-03-08T08:36:33.529Z,65.35
2023-03-08T08:39:23.988Z,66.14
2023-03-08T08:42:10.632Z,66.39
2023-03-08T08:44:57.263Z,66.66
2023-03-08T08:47:45.609Z,66.89
2023-03-08T08:50:32.683Z,65.77
2023-03-08T08:53:20.360Z,64.76
2023-03-08T08:56:25.578Z,63.02
2023-03-08T08:59:13.440Z,60.27
2023-03-08T09:01:59.837Z,60.02
2023-03-08T09:04:46.240Z,58.05
2023-03-08T09:07:32.891Z,57.73
2023-03-08T09:10:19.660Z,56.65
2023-03-08T09:13:06.755Z,55.15
2023-03-08T09:15:53.592Z,55.35
2023-03-08T09:18:40.288Z,54.43
2023-03-08T09:21:28.420Z,50.37
2023-03-08T09:24:14.968Z,49.86
2023-03-08T09:27:01.637Z,49.99
2023-03-08T09:29:48.051Z,48.14
2023-03-08T09:35:22.146Z,47.76
2023-03-08T09:38:07.192Z,47.13
2023-03-08T09:41:26.846Z,46.21
2023-03-08T09:44:43.061Z,45.72
2023-03-08T09:47:32.370Z,45.36
2023-03-08T09:50:33.875Z,44.89
2023-03-08T09:53:34.543Z,43.73
2023-03-08T09:56:43.914Z,42.97
2023-03-08T09:59:52.148Z,41.41
2023-03-08T10:02:47.558Z,41.68
2023-03-08T10:06:14.388Z,41.69
2023-03-08T10:09:11.506Z,41.12
2023-03-08T10:12:35.462Z,40.12
2023-03-08T10:15:23.307Z,39.93
2023-03-08T10:18:28.671Z,40.39
2023-03-08T10:21:18.965Z,41.44
2023-03-08T10:24:15.391Z,42.04
2023-03-08T10:27:10.235Z,42.46
2023-03-08T10:29:57.759Z,40.25
2023-03-08T10:32:46.305Z,40.50
2023-03-08T10:35:37.941Z,38.35
2023-03-08T10:38:25.833Z,38.55
2023-03-08T10:41:17.336Z,37.05
2023-03-08T10:44:03.343Z,39.08
2023-03-08T10:46:50.092Z,38.01
2023-03-08T10:49:35.477Z,35.84
2023-03-08T10:52:26.418Z,34.08
2023-03-08T10:55:14.743Z,35.33
2023-03-08T10:58:01.552Z,38.04
2023-03-08T11:00:53.693Z,38.74
2023-03-08T11:03:39.777Z,41.50
2023-03-08T11:06:25.791Z,42.74
2023-03-08T11:09:27.336Z,42.74
2023-03-08T11:12:23.405Z,45.37
2023-03-08T11:15:19.127Z,44.92
2023-03-08T11:18:41.278Z,46.00
2023-03-08T11:21:38.562Z,46.00
2023-03-08T11:25:03.990Z,47.24
2023-03-08T11:28:26.817Z,46.59
2023-03-08T11:31:18.199Z,45.43
2023-03-08T11:34:45.345Z,41.62
2023-03-08T11:37:40.115Z,41.30
2023-03-08T11:40:37.752Z,40.65
2023-03-08T11:43:31.520Z,37.63
2023-03-08T11:46:24.384Z,35.46
2023-03-08T11:49:28.330Z,34.00
2023-03-08T11:52:36.248Z,32.94
2023-03-08T11:55:49.362Z,32.42
2023-03-08T11:58:49.165Z,33.22
2023-03-08T12:02:02.516Z,32.37
2023-03-08T12:05:05.521Z,33.24
2023-03-08T12:08:13.151Z,32.89
2023-03-08T12:11:19.769Z,31.87
2023-03-08T12:14:12.788Z,31.77
2023-03-08T12:17:19.857Z,31.87
2023-03-08T12:20:08.545Z,32.21
2023-03-08T12:23:05.912Z,33.89
2023-03-08T12:26:09.834Z,35.62
2023-03-08T12:29:08.779Z,34.70
2023-03-08T12:33:40.425Z,33.47
2023-03-08T12:36:41.230Z,34.89
2023-03-08T12:39:35.721Z,36.29
2023-03-08T12:42:50.278Z,37.33
2023-03-08T12:45:36.695Z,39.34
2023-03-08T12:48:41.960Z,41.30
2023-03-08T12:51:33.295Z,41.61
2023-03-08T12:54:22.853Z,40.85
2023-03-08T12:57:21.079Z,40.57
2023-03-08T13:00:30.361Z,39.41
2023-03-08T13:03:15.620Z,39.07
2023-03-08T13:06:33.676Z,40.73
2023-03-08T13:09:28.175Z,42.66
2023-03-08T13:12:23.461Z,43.63
2023-03-08T13:15:12.893Z,41.67
2023-03-08T13:18:08.795Z,40.96
2023-03-08T13:21:18.776Z,42.43
2023-03-08T13:24:18.223Z,41.13
2023-03-08T13:27:20.966Z,38.91
2023-03-08T13:30:57.742Z,36.86
2023-03-08T13:33:48.726Z,36.22
2023-03-08T13:46:26.917Z,34.83
2023-03-08T13:49:25.846Z,35.10
2023-03-08T13:52:30.974Z,36.53
2023-03-08T13:55:25.656Z,35.41
2023-03-08T13:58:33.924Z,34.45
2023-03-08T14:01:23.171Z,36.02
2023-03-08T14:04:19.258Z,36.88
2023-03-08T14:07:06.521Z,36.77
2023-03-08T14:09:53.858Z,36.20
2023-03-08T14:12:40.531Z,36.06
2023-03-08T14:15:27.558Z,35.96
2023-03-08T14:18:22.420Z,35.86
2023-03-08T14:21:24.266Z,36.94
2023-03-08T14:24:20.365Z,36.80
2023-03-08T14:27:36.144Z,37.46
2023-03-08T14:30:25.706Z,38.37
2023-03-08T14:33:15.859Z,39.79
2023-03-08T14:36:05.986Z,41.05
2023-03-08T14:38:56.565Z,41.69
2023-03-08T14:41:43.356Z,41.84
2023-03-08T14:44:31.239Z,42.74
2023-03-08T14:47:27.216Z,43.60
2023-03-08T14:50:25.484Z,44.19
2023-03-08T14:53:34.882Z,44.53
2023-03-08T14:56:21.935Z,45.04
2023-03-08T14:59:14.000Z,45.24
2023-03-08T15:02:13.358Z,45.09
2023-03-08T15:05:02.925Z,45.80
2023-03-08T15:07:54.013Z,46.36
2023-03-08T15:10:43.715Z,46.45
2023-03-08T15:13:31.981Z,46.46
2023-03-08T15:16:21.302Z,47.25
2023-03-08T15:19:08.943Z,47.30
2023-03-08T15:21:55.738Z,47.62
2023-03-08T15:24:42.543Z,47.90
2023-03-08T15:27:30.829Z,47.94
2023-03-08T15:30:23.290Z,48.04
2023-03-08T15:33:10.013Z,48.56
2023-03-08T15:35:58.649Z,48.99
2023-03-08T15:38:45.469Z,49.51
2023-03-08T15:41:31.985Z,49.55
2023-03-08T15:44:18.863Z,49.57
2023-03-08T15:47:05.513Z,49.92
2023-03-08T15:49:52.628Z,50.10
2023-03-08T15:52:39.199Z,50.25
2023-03-08T15:55:28.449Z,50.61
2023-03-08T15:58:15.248Z,50.39
2023-03-08T16:01:02.096Z,51.10
2023-03-08T16:03:54.712Z,51.03
2023-03-08T16:06:51.873Z,51.14
2023-03-08T16:09:40.292Z,51.52
2023-03-08T16:12:27.257Z,51.43
2023-03-08T16:15:15.628Z,51.99
2023-03-08T16:18:02.158Z,53.03
2023-03-08T16:20:48.724Z,53.49
2023-03-08T16:23:36.419Z,54.15
2023-03-08T16:26:22.803Z,54.77
2023-03-08T16:29:09.727Z,54.86
2023-03-08T16:31:58.524Z,55.56
2023-03-08T16:34:51.095Z,55.72
2023-03-08T16:41:51.710Z,56.51
2023-03-08T16:44:39.065Z,56.80
2023-03-08T16:47:28.972Z,56.60
2023-03-08T16:50:30.362Z,57.03
2023-03-08T16:53:16.956Z,57.23
2023-03-08T16:56:04.644Z,58.02
2023-03-08T16:59:14.331Z,57.82
2023-03-08T17:02:01.778Z,57.95
2023-03-08T17:04:49.861Z,58.38
2023-03-08T17:07:36.789Z,59.22
2023-03-08T17:10:24.168Z,60.10
2023-03-08T17:13:12.926Z,60.23
2023-03-08T17:16:00.207Z,59.96
2023-03-08T17:18:48.739Z,60.72
2023-03-08T17:21:39.545Z,60.81
2023-03-08T17:24:28.386Z,60.88
2023-03-08T17:27:15.973Z,60.61
2023-03-08T17:30:04.140Z,60.90
2023-03-08T17:32:50.923Z,60.69
2023-03-08T17:35:42.254Z,60.86
2023-03-08T17:38:29.744Z,62.08
2023-03-08T17:41:17.086Z,63.53
2023-03-08T17:44:03.719Z,64.15
2023-03-08T17:46:50.771Z,65.89
2023-03-08T17:49:39.791Z,66.82
2023-03-08T17:52:26.472Z,68.16
2023-03-08T17:55:12.893Z,68.44
2023-03-08T17:57:59.291Z,69.22
2023-03-08T18:00:46.127Z,70.14
2023-03-08T18:03:33.989Z,70.61
2023-03-08T18:06:33.443Z,71.95
2023-03-08T18:09:19.981Z,73.71
2023-03-08T18:12:11.591Z,74.22
2023-03-08T18:14:58.557Z,74.35
2023-03-08T18:17:44.965Z,74.74
2023-03-08T18:20:31.725Z,75.50
2023-03-08T18:23:19.312Z,76.43
2023-03-08T18:26:05.722Z,76.87
2023-03-08T18:28:52.630Z,77.23
2023-03-08T18:31:40.277Z,77.79
2023-03-08T18:34:27.365Z,78.02
2023-03-08T18:37:14.846Z,78.08
2023-03-08T18:40:01.084Z,78.28
2023-03-08T18:42:47.764Z,79.09
2023-03-08T18:45:36.262Z,79.86
2023-03-08T18:48:24.378Z,81.66
2023-03-08T18:51:11.687Z,82.47
2023-03-08T18:54:00.139Z,84.51
2023-03-08T19:03:17.720Z,90.30
2023-03-08T19:06:05.235Z,90.91
2023-03-08T19:08:51.934Z,92.06
2023-03-08T19:11:39.406Z,92.93
2023-03-08T19:14:27.670Z,94.26
2023-03-08T19:17:16.345Z,94.78
2023-03-08T19:20:05.269Z,95.33
2023-03-08T19:22:52.750Z,95.65
2023-03-08T19:25:57.749Z,95.79
2023-03-08T19:28:44.131Z,96.13
2023-03-08T19:34:58.726Z,97.55
2023-03-08T19:37:45.131Z,98.02
2023-03-08T19:40:34.241Z,98.33
2023-03-08T19:43:21.104Z,98.41
2023-03-08T19:46:09.702Z,98.52
2023-03-08T19:48:56.697Z,98.35
2023-03-08T19:51:47.242Z,98.70
2023-03-08T19:54:39.267Z,98.56
2023-03-08T19:57:25.930Z,98.41
2023-03-08T20:00:13.816Z,97.97
2023-03-08T20:03:02.212Z,97.66
2023-03-08T20:05:49.169Z,97.80
2023-03-08T20:08:37.155Z,98.07
2023-03-08T20:11:24.255Z,98.11
2023-03-08T20:14:12.731Z,98.01
2023-03-08T20:17:01.875Z,97.83
2023-03-08T20:19:48.329Z,97.81
2023-03-08T20:22:35.092Z,97.86
2023-03-08T20:25:21.457Z,97.67
2023-03-08T20:28:09.187Z,97.58
2023-03-08T20:30:56.150Z,97.49
2023-03-08T20:33:43.190Z,96.99
2023-03-08T20:36:29.790Z,96.58
2023-03-08T20:39:18.319Z,96.47
2023-03-08T20:42:05.285Z,96.63
2023-03-08T20:44:52.244Z,96.42
2023-03-08T20:47:44.288Z,96.42
2023-03-08T20:50:30.767Z,96.47
2023-03-08T20:53:22.216Z,96.39
2023-03-08T20:56:12.963Z,96.81
2023-03-08T20:59:01.027Z,96.93
2023-03-08T21:01:49.312Z,96.53
2023-03-08T21:04:36.289Z,96.49
2023-03-08T21:07:23.598Z,96.16
2023-03-08T21:10:10.663Z,96.06
2023-03-08T21:12:57.147Z,95.84
2023-03-08T21:15:44.053Z,95.72
2023-03-08T21:18:30.414Z,95.32
2023-03-08T21:21:29.100Z,95.09
2023-03-08T21:24:17.423Z,94.80
2023-03-08T21:27:03.773Z,94.79
2023-03-08T21:29:50.545Z,94.32
2023-03-08T21:32:38.456Z,94.29
2023-03-08T21:35:25.242Z,94.29
2023-03-08T21:38:11.846Z,94.08
2023-03-08T21:40:58.257Z,93.93
2023-03-08T21:43:44.713Z,93.91
2023-03-08T21:46:31.124Z,94.19
2023-03-08T21:49:21.690Z,94.46
2023-03-08T21:52:09.871Z,94.55
2023-03-08T21:54:56.585Z,94.59
2023-03-08T21:57:42.839Z,94.82
2023-03-08T22:00:29.601Z,94.76
2023-03-08T22:03:16.575Z,94.84
2023-03-08T22:06:04.755Z,94.71
2023-03-08T22:08:53.753Z,95.04
2023-03-08T22:11:40.709Z,95.22
2023-03-08T22:14:28.076Z,95.09
2023-03-08T22:17:16.842Z,94.98
2023-03-08T22:20:05.483Z,95.00
2023-03-08T22:22:52.174Z,95.27
2023-03-08T22:25:38.862Z,95.17
2023-03-08T22:28:25.705Z,95.03
2023-03-08T22:31:15.826Z,95.01
2023-03-08T22:34:04.707Z,94.97
2023-03-08T22:36:51.391Z,95.31
2023-03-08T22:39:39.141Z,95.44
2023-03-08T22:42:26.017Z,95.52
2023-03-08T22:45:13.207Z,95.64
2023-03-08T22:48:00.651Z,95.70
2023-03-08T22:50:47.175Z,95.91
2023-03-08T22:53:33.553Z,95.61
2023-03-08T22:56:23.835Z,95.62
2023-03-08T22:59:12.402Z,95.51
2023-03-08T23:01:59.207Z,95.38
2023-03-08T23:04:45.906Z,95.27
2023-03-08T23:07:33.005Z,95.51
2023-03-08T23:10:19.997Z,95.53
2023-03-08T23:13:07.241Z,95.41
2023-03-08T23:15:53.747Z,95.55
2023-03-08T23:18:40.564Z,95.17
2023-03-08T23:21:32.452Z,95.18
2023-03-08T23:24:19.960Z,95.15
2023-03-08T23:27:06.450Z,95.13
2023-03-08T23:29:53.754Z,95.35
2023-03-08T23:32:42.660Z,95.25
2023-03-08T23:35:29.023Z,95.23
2023-03-08T23:38:15.535Z,95.17
2023-03-08T23:41:06.837Z,95.15
2023-03-08T23:43:55.733Z,94.98
2023-03-08T23:46:46.105Z,95.22
2023-03-08T23:49:32.843Z,95.29
2023-03-08T23:52:21.141Z,95.27
2023-03-08T23:55:08.191Z,95.69
2023-03-08T23:57:54.698Z,96.05
